Time;durP1;ratioP1;P1;durP2;ratioP2;P2;SDS_P1;SDS_P2;PMS_P1;PMS_P2;Temp;Humidity;BMP_temperature;BMP_pressure;BME280_temperature;BME280_humidity;BME280_pressure;Samples;Min_cycle;Max_cycle;Signal;HPM_P1;HPM_P2
2021/04/28 00:01:06;;;;;;;7.20;3.92;;;;;;;;;;5090189;28;20027;-75
2021/04/28 00:03:33;;;;;;;6.00;4.20;;;;;;;;;;5091963;28;20113;-73
2021/04/28 00:05:59;;;;;;;7.43;4.15;;;;;;;;;;5091728;28;20039;-75
2021/04/28 00:08:24;;;;;;;5.75;4.20;;;;;;;;;;5092078;28;20118;-76
2021/04/28 00:10:50;;;;;;;6.93;4.23;;;;;;;;;;5091105;28;20032;-75
2021/04/28 00:13:17;;;;;;;7.05;4.05;;;;;;;;;;5091245;28;20047;-77
2021/04/28 00:15:46;;;;;;;7.18;4.07;;;;;;;;;;5090801;28;20030;-75
2021/04/28 00:18:12;;;;;;;6.53;4.03;;;;;;;;;;5091725;28;20024;-75
2021/04/28 00:20:39;;;;;;;5.55;4.22;;;;;;;;;;5091679;28;20115;-74
2021/04/28 00:23:05;;;;;;;;;;;;;;;;;;5091183;28;20024;-74
2021/04/28 00:25:31;;;;;;;7.05;4.53;;;;;;;;;;5091605;28;19908;-75
2021/04/28 00:27:58;;;;;;;6.37;4.10;;;;;;;;;;5090722;28;20024;-74
2021/04/28 00:30:24;;;;;;;;;;;;;;;;;;5091199;28;20020;-74
2021/04/28 00:32:50;;;;;;;6.40;4.20;;;;;;;;;;5091493;28;20325;-74
2021/04/28 00:35:16;;;;;;;5.78;3.67;;;;;;;;;;5073167;28;20092;-75
2021/04/28 00:37:43;;;;;;;6.80;4.32;;;;;;;;;;5091231;28;20020;-74
2021/04/28 00:40:11;;;;;;;4.85;3.88;;;;;;;;;;5090836;28;20046;-74
2021/04/28 00:42:37;;;;;;;6.40;4.15;;;;;;;;;;5090454;28;20031;-74
2021/04/28 00:45:04;;;;;;;5.75;4.10;;;;;;;;;;5090903;28;20032;-74
2021/04/28 00:47:30;;;;;;;10.18;4.18;;;;;;;;;;5091156;28;20486;-75
2021/04/28 00:49:56;;;;;;;7.37;4.00;;;;;;;;;;5090917;28;20089;-76
2021/04/28 00:52:22;;;;;;;8.63;4.00;;;;;;;;;;5090178;28;20482;-75
2021/04/28 00:54:49;;;;;;;9.63;4.53;;;;;;;;;;5075202;28;20048;-76
2021/04/28 00:57:15;;;;;;;7.93;3.97;;;;;;;;;;5090462;28;20040;-75
2021/04/28 00:59:41;;;;;;;5.45;3.70;;;;;;;;;;5090629;28;20708;-76
2021/04/28 01:02:07;;;;;;;5.73;3.80;;;;;;;;;;5089975;28;20027;-76
2021/04/28 01:04:33;;;;;;;6.67;3.67;;;;;;;;;;5089702;28;20056;-75
2021/04/28 01:06:59;;;;;;;6.63;3.80;;;;;;;;;;5089856;28;20036;-75
2021/04/28 01:09:25;;;;;;;7.40;4.00;;;;;;;;;;5075380;28;20077;-75
2021/04/28 01:11:51;;;;;;;6.10;3.63;;;;;;;;;;5090138;28;20059;-76
2021/04/28 01:14:18;;;;;;;5.55;4.07;;;;;;;;;;5090175;28;20044;-75
2021/04/28 01:16:44;;;;;;;7.43;4.07;;;;;;;;;;5090960;28;20180;-76
2021/04/28 01:19:10;;;;;;;6.05;3.70;;;;;;;;;;5090669;28;20069;-75
2021/04/28 01:21:36;;;;;;;4.63;3.70;;;;;;;;;;5090353;28;20035;-75
2021/04/28 01:24:02;;;;;;;7.10;4.00;;;;;;;;;;5090175;28;20277;-74
2021/04/28 01:26:29;;;;;;;7.13;3.83;;;;;;;;;;5087369;28;20024;-75
2021/04/28 01:28:55;;;;;;;;;;;;;;;;;;5090874;28;20035;-74
2021/04/28 01:31:22;;;;;;;8.65;4.10;;;;;;;;;;5090577;28;19912;-74
2021/04/28 01:33:51;;;;;;;6.75;3.58;;;;;;;;;;5090513;28;20039;-73
2021/04/28 01:36:19;;;;;;;6.45;3.75;;;;;;;;;;5090588;28;20027;-75
2021/04/28 01:38:46;;;;;;;6.28;3.70;;;;;;;;;;5089741;28;20050;-76
2021/04/28 01:41:12;;;;;;;7.43;3.58;;;;;;;;;;5089752;28;20032;-75
2021/04/28 01:43:40;;;;;;;7.85;3.80;;;;;;;;;;5089982;28;20324;-75
2021/04/28 01:46:06;;;;;;;7.43;4.10;;;;;;;;;;5089656;28;20035;-75
2021/04/28 01:48:32;;;;;;;7.87;3.73;;;;;;;;;;5089458;28;20036;-75
2021/04/28 01:50:58;;;;;;;6.47;3.60;;;;;;;;;;5090262;28;20032;-75
2021/04/28 01:53:25;;;;;;;5.78;3.60;;;;;;;;;;5089634;28;20047;-76
2021/04/28 01:55:52;;;;;;;5.95;3.80;;;;;;;;;;5090334;28;20028;-76
2021/04/28 01:58:19;;;;;;;6.05;3.90;;;;;;;;;;5088841;28;20040;-76
2021/04/28 02:00:45;;;;;;;10.77;3.70;;;;;;;;;;5089037;28;20430;-75
2021/04/28 02:03:11;;;;;;;4.97;3.60;;;;;;;;;;5089258;28;20032;-75
2021/04/28 02:05:37;;;;;;;5.80;3.80;;;;;;;;;;5089624;28;20459;-76
2021/04/28 02:08:04;;;;;;;6.20;3.72;;;;;;;;;;5089461;28;20036;-75
2021/04/28 02:10:30;;;;;;;7.07;3.47;;;;;;;;;;5089662;28;20567;-75
2021/04/28 02:12:56;;;;;;;6.00;3.60;;;;;;;;;;5089509;28;20135;-76
2021/04/28 02:15:24;;;;;;;5.97;3.50;;;;;;;;;;5089721;28;20419;-76
2021/04/28 02:17:54;;;;;;;7.57;3.67;;;;;;;;;;5089780;28;20039;-78
2021/04/28 02:20:20;;;;;;;5.53;3.58;;;;;;;;;;5071603;28;20040;-76
2021/04/28 02:22:47;;;;;;;5.18;3.50;;;;;;;;;;5089114;28;20505;-76
2021/04/28 02:25:13;;;;;;;7.40;3.70;;;;;;;;;;5089901;28;20106;-76
2021/04/28 02:27:39;;;;;;;5.07;3.60;;;;;;;;;;5089931;28;20028;-76
2021/04/28 02:30:06;;;;;;;5.53;3.67;;;;;;;;;;5089328;28;20467;-76
2021/04/28 02:32:32;;;;;;;;;;;;;;;;;;5089578;28;20474;-76
2021/04/28 02:34:58;;;;;;;5.18;3.50;;;;;;;;;;5089718;28;19968;-75
2021/04/28 02:37:24;;;;;;;6.17;3.40;;;;;;;;;;5089801;28;20103;-76
2021/04/28 02:39:57;;;;;;;5.63;3.22;;;;;;;;;;5092714;28;20157;-76
2021/04/28 02:42:23;;;;;;;12.13;3.30;;;;;;;;;;5093474;28;20370;-77
2021/04/28 02:44:50;;;;;;;6.88;3.35;;;;;;;;;;5094025;28;20055;-75
2021/04/28 02:47:17;;;;;;;5.03;3.70;;;;;;;;;;5093369;28;20612;-75
2021/04/28 02:49:43;;;;;;;4.60;3.40;;;;;;;;;;5093110;28;20122;-76
2021/04/28 02:52:09;;;;;;;6.82;3.45;;;;;;;;;;5092452;28;20095;-75
2021/04/28 02:54:38;;;;;;;5.60;3.53;;;;;;;;;;5093279;28;20028;-76
2021/04/28 02:57:05;;;;;;;5.10;3.65;;;;;;;;;;5092951;28;20107;-76
2021/04/28 02:59:31;;;;;;;4.97;3.22;;;;;;;;;;5093021;28;20028;-75
2021/04/28 03:01:57;;;;;;;5.70;3.45;;;;;;;;;;5091958;28;20406;-76
2021/04/28 03:04:23;;;;;;;6.57;3.28;;;;;;;;;;5092948;28;20481;-75
2021/04/28 03:06:50;;;;;;;4.82;3.60;;;;;;;;;;5092847;28;20545;-75
2021/04/28 03:09:16;;;;;;;9.02;3.97;;;;;;;;;;5093377;28;20355;-76
2021/04/28 03:11:43;;;;;;;7.03;3.28;;;;;;;;;;5092700;28;20647;-75
2021/04/28 03:14:09;;;;;;;;;;;;;;;;;;5092571;28;20036;-76
2021/04/28 03:16:35;;;;;;;5.57;3.30;;;;;;;;;;5092930;28;20290;-76
2021/04/28 03:19:02;;;;;;;7.90;3.70;;;;;;;;;;5092943;28;20615;-76
2021/04/28 03:21:31;;;;;;;5.57;3.40;;;;;;;;;;5092574;28;20105;-75
2021/04/28 03:23:57;;;;;;;7.90;3.40;;;;;;;;;;5091993;28;20044;-75
2021/04/28 03:26:23;;;;;;;9.33;3.47;;;;;;;;;;5092349;28;20124;-75
2021/04/28 03:28:50;;;;;;;5.70;3.45;;;;;;;;;;5092440;28;20438;-76
2021/04/28 03:31:16;;;;;;;4.72;3.22;;;;;;;;;;5092182;28;20457;-76
2021/04/28 03:33:42;;;;;;;4.45;3.00;;;;;;;;;;5092219;28;20135;-75
2021/04/28 03:36:08;;;;;;;6.27;3.50;;;;;;;;;;5092758;28;20028;-74
2021/04/28 03:38:34;;;;;;;5.40;3.50;;;;;;;;;;5092073;28;20482;-76
2021/04/28 03:41:00;;;;;;;4.95;3.30;;;;;;;;;;5092016;28;20511;-76
2021/04/28 03:43:26;;;;;;;5.40;3.27;;;;;;;;;;5091765;28;20040;-75
2021/04/28 03:45:54;;;;;;;3.55;3.03;;;;;;;;;;5092024;28;20069;-76
2021/04/28 03:48:19;;;;;;;5.97;3.30;;;;;;;;;;5092320;28;20031;-75
2021/04/28 03:50:45;;;;;;;4.33;3.17;;;;;;;;;;5091282;28;20027;-76
2021/04/28 03:53:11;;;;;;;4.77;3.53;;;;;;;;;;5073065;28;20090;-75
2021/04/28 03:55:37;;;;;;;4.87;3.27;;;;;;;;;;5092308;28;20031;-75
2021/04/28 03:58:03;;;;;;;3.83;3.37;;;;;;;;;;5091868;28;20028;-76
2021/04/28 04:00:30;;;;;;;4.67;3.27;;;;;;;;;;5091209;28;20043;-75
2021/04/28 04:02:56;;;;;;;5.00;3.10;;;;;;;;;;5091498;28;20309;-75
2021/04/28 04:05:22;;;;;;;4.38;3.13;;;;;;;;;;5091526;28;20035;-75
2021/04/28 04:07:48;;;;;;;5.15;3.38;;;;;;;;;;5092260;28;20028;-76
2021/04/28 04:10:14;;;;;;;4.00;3.30;;;;;;;;;;5091998;28;20068;-76
2021/04/28 04:12:40;;;;;;;4.45;3.33;;;;;;;;;;5091280;28;20051;-75
2021/04/28 04:15:07;;;;;;;3.97;2.83;;;;;;;;;;5091703;28;20016;-76
2021/04/28 04:17:33;;;;;;;5.95;3.22;;;;;;;;;;5091545;28;20035;-75
2021/04/28 04:19:59;;;;;;;3.13;2.72;;;;;;;;;;5091451;28;20024;-75
2021/04/28 04:22:25;;;;;;;4.25;3.03;;;;;;;;;;5091188;28;20035;-74
2021/04/28 04:24:51;;;;;;;3.57;3.00;;;;;;;;;;5072566;28;20036;-75
2021/04/28 04:27:17;;;;;;;5.18;2.80;;;;;;;;;;5091885;28;20265;-75
2021/04/28 04:29:43;;;;;;;4.43;2.97;;;;;;;;;;5091731;28;20115;-75
2021/04/28 04:32:09;;;;;;;3.83;2.90;;;;;;;;;;5090740;28;20032;-75
2021/04/28 04:34:35;;;;;;;4.38;3.22;;;;;;;;;;5090187;28;20089;-75
2021/04/28 04:37:02;;;;;;;5.57;4.07;;;;;;;;;;5090808;28;20028;-75
2021/04/28 04:39:28;;;;;;;8.18;6.07;;;;;;;;;;5090919;28;20032;-75
2021/04/28 04:41:54;;;;;;;9.50;7.25;;;;;;;;;;5091606;28;20073;-76
2021/04/28 04:44:20;;;;;;;8.90;7.97;;;;;;;;;;5090872;28;20036;-76
2021/04/28 04:46:46;;;;;;;9.73;8.73;;;;;;;;;;5091223;28;20032;-76
2021/04/28 04:49:12;;;;;;;9.88;8.85;;;;;;;;;;5090267;28;20106;-75
2021/04/28 04:51:38;;;;;;;11.35;9.45;;;;;;;;;;5090997;28;20020;-75
2021/04/28 04:54:04;;;;;;;10.75;9.05;;;;;;;;;;5090171;28;20498;-74
2021/04/28 04:56:30;;;;;;;11.90;9.90;;;;;;;;;;5090788;28;20386;-74
2021/04/28 04:58:56;;;;;;;14.02;10.23;;;;;;;;;;5090566;28;20032;-75
2021/04/28 05:01:22;;;;;;;14.67;13.17;;;;;;;;;;5071720;28;20370;-75
2021/04/28 05:03:48;;;;;;;18.27;16.37;;;;;;;;;;5090299;28;20277;-75
2021/04/28 05:06:14;;;;;;;20.13;18.03;;;;;;;;;;5090470;28;20043;-75
2021/04/28 05:08:40;;;;;;;26.20;19.47;;;;;;;;;;5076857;28;20267;-75
2021/04/28 05:11:06;;;;;;;30.40;19.27;;;;;;;;;;5090372;28;20043;-76
2021/04/28 05:13:32;;;;;;;28.07;19.00;;;;;;;;;;5090780;28;20534;-77
2021/04/28 05:15:58;;;;;;;22.07;19.40;;;;;;;;;;5089536;28;20286;-76
2021/04/28 05:18:24;;;;;;;26.08;19.02;;;;;;;;;;5089782;28;20050;-86
2021/04/28 05:20:50;;;;;;;24.33;18.80;;;;;;;;;;5090444;28;20098;-83
2021/04/28 05:23:16;;;;;;;18.53;16.70;;;;;;;;;;5090060;28;20157;-83
2021/04/28 05:25:42;;;;;;;19.93;16.10;;;;;;;;;;5089507;28;20028;-80
2021/04/28 05:28:08;;;;;;;51.43;18.90;;;;;;;;;;5072691;28;20062;-81
2021/04/28 05:30:34;;;;;;;151.33;21.20;;;;;;;;;;5089833;28;20046;-78
2021/04/28 05:33:00;;;;;;;38.88;16.05;;;;;;;;;;5076716;28;20074;-80
2021/04/28 05:35:26;;;;;;;19.07;8.03;;;;;;;;;;5052253;28;20029;-80
2021/04/28 05:37:52;;;;;;;37.33;13.73;;;;;;;;;;5069821;28;20046;-80
2021/04/28 05:40:18;;;;;;;31.40;13.47;;;;;;;;;;5073282;28;20040;-81
2021/04/28 05:42:44;;;;;;;35.67;13.73;;;;;;;;;;5089825;28;20070;-80
2021/04/28 05:45:11;;;;;;;29.73;12.70;;;;;;;;;;5090044;28;20035;-81
2021/04/28 05:47:37;;;;;;;;;;;;;;;;;;5090165;28;20044;-81
2021/04/28 05:50:04;;;;;;;25.17;12.32;;;;;;;;;;5090011;28;19946;-80
2021/04/28 05:52:30;;;;;;;26.13;11.52;;;;;;;;;;5090555;28;20032;-81
2021/04/28 05:54:56;;;;;;;21.73;10.63;;;;;;;;;;5089673;28;20371;-81
2021/04/28 05:57:22;;;;;;;20.97;10.33;;;;;;;;;;5089635;28;20286;-78
2021/04/28 05:59:48;;;;;;;14.55;9.55;;;;;;;;;;5089692;28;20274;-81
2021/04/28 06:02:14;;;;;;;16.03;8.93;;;;;;;;;;5089611;28;20370;-81
2021/04/28 06:04:40;;;;;;;20.95;8.35;;;;;;;;;;5089927;28;20274;-80
2021/04/28 06:07:06;;;;;;;19.60;7.95;;;;;;;;;;5090560;28;20023;-81
2021/04/28 06:09:33;;;;;;;13.70;6.68;;;;;;;;;;5089620;28;20071;-81
2021/04/28 06:11:59;;;;;;;12.02;6.47;;;;;;;;;;5089905;28;20494;-81
2021/04/28 06:14:25;;;;;;;14.18;6.28;;;;;;;;;;5092770;28;20051;-75
2021/04/28 06:16:51;;;;;;;11.70;5.97;;;;;;;;;;5090521;28;20032;-77
2021/04/28 06:19:17;;;;;;;12.32;6.32;;;;;;;;;;5073975;28;20041;-77
2021/04/28 06:21:43;;;;;;;16.27;6.10;;;;;;;;;;5090680;28;20126;-76
2021/04/28 06:24:10;;;;;;;13.52;6.13;;;;;;;;;;5094442;28;20303;-76
2021/04/28 06:26:39;;;;;;;11.23;5.38;;;;;;;;;;5093253;28;20028;-75
2021/04/28 06:29:05;;;;;;;13.55;6.10;;;;;;;;;;5085875;28;20123;-77
2021/04/28 06:31:31;;;;;;;12.07;5.57;;;;;;;;;;5094026;28;20116;-77
2021/04/28 06:33:57;;;;;;;10.63;4.85;;;;;;;;;;5093993;28;20032;-76
2021/04/28 06:36:23;;;;;;;12.53;5.30;;;;;;;;;;5093485;28;20385;-76
2021/04/28 06:38:49;;;;;;;11.40;5.45;;;;;;;;;;5093742;28;20273;-76
2021/04/28 06:41:15;;;;;;;11.75;5.45;;;;;;;;;;5093704;28;20039;-76
2021/04/28 06:43:41;;;;;;;11.67;5.20;;;;;;;;;;5094011;28;20024;-77
2021/04/28 06:46:07;;;;;;;17.80;5.43;;;;;;;;;;5093776;28;20262;-78
2021/04/28 06:48:33;;;;;;;9.05;5.35;;;;;;;;;;5093776;28;20277;-77
2021/04/28 06:50:59;;;;;;;10.57;4.93;;;;;;;;;;5093255;28;20040;-76
2021/04/28 06:53:25;;;;;;;8.93;4.80;;;;;;;;;;5093390;28;20055;-76
2021/04/28 06:55:51;;;;;;;11.38;5.43;;;;;;;;;;5093598;28;20028;-77
2021/04/28 06:58:17;;;;;;;10.25;5.13;;;;;;;;;;5092917;28;20031;-77
2021/04/28 07:00:44;;;;;;;13.70;5.90;;;;;;;;;;5092951;28;20040;-77
2021/04/28 07:03:10;;;;;;;11.07;5.50;;;;;;;;;;5092928;28;20103;-76
2021/04/28 07:05:36;;;;;;;9.90;5.00;;;;;;;;;;5074825;28;20446;-77
2021/04/28 07:08:02;;;;;;;8.95;5.03;;;;;;;;;;5093077;28;20028;-76
2021/04/28 07:10:28;;;;;;;10.07;5.18;;;;;;;;;;5093007;28;20032;-76
2021/04/28 07:12:54;;;;;;;9.65;5.22;;;;;;;;;;5092727;28;20451;-77
2021/04/28 07:15:20;;;;;;;10.82;4.70;;;;;;;;;;5092986;28;20160;-77
2021/04/28 07:17:47;;;;;;;9.32;4.80;;;;;;;;;;5092861;28;20386;-77
2021/04/28 07:20:13;;;;;;;10.57;4.97;;;;;;;;;;5093268;28;20043;-77
2021/04/28 07:22:42;;;;;;;9.15;5.10;;;;;;;;;;5093112;28;20419;-78
2021/04/28 07:25:08;;;;;;;11.13;4.85;;;;;;;;;;5091260;28;20105;-77
2021/04/28 07:27:34;;;;;;;9.00;4.80;;;;;;;;;;5093084;28;20036;-78
2021/04/28 07:30:00;;;;;;;8.07;4.70;;;;;;;;;;5092385;28;20107;-77
2021/04/28 07:32:26;;;;;;;8.25;4.80;;;;;;;;;;5092896;28;20250;-77
2021/04/28 07:34:52;;;;;;;8.82;4.93;;;;;;;;;;5093179;28;20036;-78
2021/04/28 07:37:18;;;;;;;8.27;4.72;;;;;;;;;;5093164;28;20081;-77
2021/04/28 07:39:45;;;;;;;7.57;4.43;;;;;;;;;;5092576;28;20036;-78
2021/04/28 07:42:11;;;;;;;8.50;4.80;;;;;;;;;;5092574;28;20060;-76
2021/04/28 07:44:37;;;;;;;9.40;4.60;;;;;;;;;;5092447;28;20024;-76
2021/04/28 07:47:03;;;;;;;10.25;4.72;;;;;;;;;;5092584;28;20058;-76
2021/04/28 07:49:29;;;;;;;9.60;4.53;;;;;;;;;;5092532;28;20043;-77
2021/04/28 07:51:55;;;;;;;8.33;4.33;;;;;;;;;;5092404;28;20470;-76
2021/04/28 07:54:22;;;;;;;7.97;4.60;;;;;;;;;;5074731;28;20447;-78
2021/04/28 07:56:49;;;;;;;9.20;4.32;;;;;;;;;;5092033;28;20034;-77
2021/04/28 07:59:15;;;;;;;6.85;4.35;;;;;;;;;;5092856;28;20036;-78
2021/04/28 08:01:41;;;;;;;8.37;4.50;;;;;;;;;;5092208;28;20043;-76
2021/04/28 08:04:07;;;;;;;7.18;4.03;;;;;;;;;;5091974;28;20261;-78
2021/04/28 08:06:33;;;;;;;7.90;4.40;;;;;;;;;;5074054;28;20035;-76
2021/04/28 08:08:59;;;;;;;7.75;4.28;;;;;;;;;;5091959;28;20300;-78
2021/04/28 08:11:26;;;;;;;8.10;4.45;;;;;;;;;;5091565;28;20052;-75
2021/04/28 08:13:52;;;;;;;7.05;4.15;;;;;;;;;;5092304;28;20036;-76
2021/04/28 08:16:19;;;;;;;6.88;4.40;;;;;;;;;;5091071;28;20092;-75
2021/04/28 08:18:46;;;;;;;6.40;4.13;;;;;;;;;;5073394;28;20028;-76
2021/04/28 08:21:12;;;;;;;7.55;4.05;;;;;;;;;;5091777;28;20024;-77
2021/04/28 08:23:42;;;;;;;6.60;4.18;;;;;;;;;;5091359;28;20047;-78
2021/04/28 08:26:08;;;;;;;7.75;4.40;;;;;;;;;;5092001;28;20099;-79
2021/04/28 08:28:42;;;;;;;7.35;4.68;;;;;;;;;;5091647;28;20046;-77
2021/04/28 08:31:11;;;;;;;7.63;3.97;;;;;;;;;;5091345;28;20151;-77
2021/04/28 08:33:38;;;;;;;6.80;4.25;;;;;;;;;;5090967;28;20050;-77
2021/04/28 08:36:04;;;;;;;6.97;3.97;;;;;;;;;;5091257;28;20028;-78
2021/04/28 08:38:30;;;;;;;;;;;;;;;;;;5091831;28;20028;-77
2021/04/28 08:40:57;;;;;;;6.60;4.18;;;;;;;;;;5091407;28;19999;-78
2021/04/28 08:43:26;;;;;;;6.78;4.15;;;;;;;;;;5090484;28;20122;-77
2021/04/28 08:45:52;;;;;;;5.93;4.13;;;;;;;;;;5091449;28;20028;-77
2021/04/28 08:48:19;;;;;;;6.00;3.78;;;;;;;;;;5091257;28;20024;-77
2021/04/28 08:50:45;;;;;;;6.63;4.30;;;;;;;;;;5091198;28;20025;-78
2021/04/28 08:53:15;;;;;;;6.47;4.38;;;;;;;;;;5091070;28;20074;-76
2021/04/28 08:55:41;;;;;;;7.10;4.10;;;;;;;;;;5091094;28;20052;-77
2021/04/28 08:58:07;;;;;;;6.88;4.20;;;;;;;;;;5091386;28;20077;-78
2021/04/28 09:00:33;;;;;;;6.32;4.20;;;;;;;;;;5090391;28;20024;-76
2021/04/28 09:03:00;;;;;;;5.90;3.90;;;;;;;;;;5091439;28;20422;-77
2021/04/28 09:05:27;;;;;;;5.47;3.83;;;;;;;;;;5087699;28;20055;-78
2021/04/28 09:07:53;;;;;;;7.57;4.30;;;;;;;;;;5090439;28;20059;-78
2021/04/28 09:10:19;;;;;;;12.07;10.20;;;;;;;;;;5090954;28;20051;-77
2021/04/28 09:12:53;;;;;;;15.77;11.83;;;;;;;;;;5089684;28;20320;-77
2021/04/28 09:15:31;;;;;;;12.68;11.32;;;;;;;;;;5090916;28;20043;-77
2021/04/28 09:17:57;;;;;;;13.65;11.90;;;;;;;;;;5090577;28;20162;-78
2021/04/28 09:20:34;;;;;;;14.05;11.18;;;;;;;;;;5090678;28;20024;-77
2021/04/28 09:23:07;;;;;;;13.55;11.93;;;;;;;;;;5091027;28;20031;-78
2021/04/28 09:25:49;;;;;;;16.48;12.80;;;;;;;;;;5072450;28;20028;-83
2021/04/28 09:28:18;;;;;;;13.68;12.02;;;;;;;;;;5072261;28;20031;-79
2021/04/28 09:30:44;;;;;;;13.85;12.10;;;;;;;;;;5072197;28;20050;-81
2021/04/28 09:33:11;;;;;;;13.70;11.13;;;;;;;;;;5089743;28;20036;-80
2021/04/28 09:35:37;;;;;;;16.52;11.73;;;;;;;;;;5090728;28;20056;-79
2021/04/28 09:38:03;;;;;;;12.07;10.27;;;;;;;;;;5090057;28;20074;-75
2021/04/28 09:40:40;;;;;;;12.57;9.23;;;;;;;;;;5090430;28;20266;-81
2021/04/28 09:43:06;;;;;;;9.93;8.45;;;;;;;;;;5076401;28;20036;-82
2021/04/28 09:45:41;;;;;;;11.23;8.00;;;;;;;;;;5085815;28;20474;-84
2021/04/28 09:48:10;;;;;;;8.52;7.38;;;;;;;;;;5071396;28;20028;-84
2021/04/28 09:50:36;;;;;;;10.35;7.32;;;;;;;;;;5090370;28;20058;-85
2021/04/28 09:53:03;;;;;;;9.20;6.93;;;;;;;;;;5071887;28;20050;-82
2021/04/28 09:55:29;;;;;;;10.18;6.90;;;;;;;;;;5090320;28;20425;-83
2021/04/28 09:57:55;;;;;;;10.30;7.07;;;;;;;;;;5090103;28;20028;-84
2021/04/28 10:00:28;;;;;;;9.30;6.60;;;;;;;;;;5089666;28;20370;-85
2021/04/28 10:02:57;;;;;;;9.73;7.07;;;;;;;;;;5076034;28;20025;-81
2021/04/28 10:05:26;;;;;;;8.65;7.40;;;;;;;;;;5068293;28;20069;-80
2021/04/28 10:07:54;;;;;;;8.60;6.78;;;;;;;;;;5072782;28;20036;-82
2021/04/28 10:10:20;;;;;;;10.18;6.47;;;;;;;;;;5086903;28;20028;-82
2021/04/28 10:12:46;;;;;;;7.30;6.22;;;;;;;;;;5089720;28;20490;-82
2021/04/28 10:15:13;;;;;;;7.80;6.43;;;;;;;;;;5084835;28;20028;-82
2021/04/28 10:17:39;;;;;;;8.23;6.45;;;;;;;;;;5079209;28;20040;-84
2021/04/28 10:20:06;;;;;;;8.48;6.30;;;;;;;;;;5090000;28;20492;-82
2021/04/28 10:22:32;;;;;;;8.25;6.22;;;;;;;;;;5089663;28;20028;-81
2021/04/28 10:25:03;;;;;;;9.90;5.63;;;;;;;;;;5084380;28;20032;-80
2021/04/28 10:27:29;;;;;;;9.50;5.90;;;;;;;;;;5082778;28;20032;-81
2021/04/28 10:29:56;;;;;;;12.02;6.07;;;;;;;;;;5070286;28;20024;-81
2021/04/28 10:32:23;;;;;;;8.98;6.53;;;;;;;;;;5072146;28;20546;-82
2021/04/28 10:34:59;;;;;;;8.63;5.85;;;;;;;;;;5073740;28;20021;-81
2021/04/28 10:37:27;;;;;;;7.75;4.63;;;;;;;;;;5068827;28;20085;-82
2021/04/28 10:39:53;;;;;;;7.03;4.57;;;;;;;;;;5070594;28;20033;-83
2021/04/28 10:42:25;;;;;;;6.22;3.90;;;;;;;;;;5089928;28;20028;-83
2021/04/28 10:44:51;;;;;;;6.32;4.00;;;;;;;;;;5089941;28;20032;-82
2021/04/28 10:47:20;;;;;;;6.65;4.22;;;;;;;;;;5089126;28;20043;-84
2021/04/28 10:50:06;;;;;;;6.10;4.03;;;;;;;;;;5089951;28;20041;-84
2021/04/28 10:52:33;;;;;;;5.07;3.78;;;;;;;;;;5071463;28;20449;-81
2021/04/28 10:55:00;;;;;;;5.55;3.85;;;;;;;;;;5089784;28;20078;-82
2021/04/28 10:57:39;;;;;;;5.10;3.75;;;;;;;;;;5089593;28;20128;-82
2021/04/28 11:00:20;;;;;;;5.80;3.42;;;;;;;;;;5090860;28;20461;-81
2021/04/28 11:02:46;;;;;;;5.05;3.58;;;;;;;;;;5081715;28;20031;-81
2021/04/28 11:05:21;;;;;;;5.00;3.40;;;;;;;;;;5077335;28;20436;-83
2021/04/28 11:07:51;;;;;;;7.45;3.85;;;;;;;;;;5072594;28;20048;-80
2021/04/28 11:10:24;;;;;;;5.15;3.80;;;;;;;;;;5072564;28;20108;-78
2021/04/28 11:13:02;;;;;;;7.00;3.80;;;;;;;;;;5083805;28;20093;-80
2021/04/28 11:15:44;;;;;;;6.07;3.42;;;;;;;;;;5073763;28;20077;-79
2021/04/28 11:18:36;;;;;;;5.72;3.38;;;;;;;;;;5083780;28;20090;-78
2021/04/28 11:21:12;;;;;;;5.80;3.30;;;;;;;;;;5089396;28;20052;-80
2021/04/28 11:23:38;;;;;;;4.63;3.60;;;;;;;;;;5094240;28;20099;-81
2021/04/28 11:26:37;;;;;;;6.15;3.60;;;;;;;;;;5074637;28;20221;-82
2021/04/28 11:29:04;;;;;;;4.95;3.72;;;;;;;;;;5055972;28;20387;-84
2021/04/28 11:31:46;;;;;;;4.60;3.85;;;;;;;;;;5092376;28;20154;-82
2021/04/28 11:34:19;;;;;;;7.00;3.50;;;;;;;;;;5074470;28;20056;-82
2021/04/28 11:36:51;;;;;;;11.88;3.67;;;;;;;;;;5074718;28;20114;-82
2021/04/28 11:39:33;;;;;;;11.00;4.65;;;;;;;;;;5092681;28;20044;-82
2021/04/28 11:42:15;;;;;;;4.88;3.60;;;;;;;;;;5092461;28;20028;-84
2021/04/28 11:44:52;;;;;;;8.35;3.83;;;;;;;;;;5077663;28;20016;-86
2021/04/28 11:47:19;;;;;;;5.63;3.80;;;;;;;;;;5089395;28;20026;-82
2021/04/28 11:49:47;;;;;;;7.78;3.85;;;;;;;;;;5078060;28;20124;-81
2021/04/28 11:52:13;;;;;;;5.75;3.83;;;;;;;;;;5079518;28;20137;-79
2021/04/28 11:54:39;;;;;;;5.75;3.63;;;;;;;;;;5089197;28;20150;-79
2021/04/28 11:57:05;;;;;;;5.32;3.70;;;;;;;;;;5078129;28;20040;-81
2021/04/28 11:59:34;;;;;;;13.23;4.05;;;;;;;;;;5083581;28;20424;-85
2021/04/28 12:02:01;;;;;;;7.18;3.58;;;;;;;;;;5087591;28;20024;-83
2021/04/28 12:04:34;;;;;;;15.25;4.35;;;;;;;;;;5091946;28;20063;-78
2021/04/28 12:07:01;;;;;;;16.65;4.93;;;;;;;;;;5077100;28;20403;-78
2021/04/28 12:09:37;;;;;;;13.50;4.30;;;;;;;;;;5088368;28;20063;-79
2021/04/28 12:12:08;;;;;;;6.65;4.05;;;;;;;;;;5071895;28;20597;-80
2021/04/28 12:14:34;;;;;;;8.40;3.85;;;;;;;;;;5091651;28;20070;-80
2021/04/28 12:17:00;;;;;;;9.68;4.05;;;;;;;;;;5092082;28;20103;-80
2021/04/28 12:19:27;;;;;;;6.57;3.80;;;;;;;;;;5091728;28;20474;-80
2021/04/28 12:22:03;;;;;;;8.02;3.90;;;;;;;;;;5091407;28;20292;-81
2021/04/28 12:24:29;;;;;;;8.57;4.10;;;;;;;;;;5091628;28;20058;-80
2021/04/28 12:27:02;;;;;;;7.70;4.40;;;;;;;;;;5091903;28;20524;-81
2021/04/28 12:29:28;;;;;;;8.50;4.00;;;;;;;;;;5087349;28;20031;-79
2021/04/28 12:31:54;;;;;;;6.27;3.70;;;;;;;;;;5071592;28;20033;-81
2021/04/28 12:34:20;;;;;;;5.63;3.93;;;;;;;;;;5084838;28;20640;-79
2021/04/28 12:36:47;;;;;;;5.43;3.90;;;;;;;;;;5088236;28;20024;-80
2021/04/28 12:39:29;;;;;;;5.18;3.88;;;;;;;;;;5089725;28;20278;-80
2021/04/28 12:41:56;;;;;;;7.20;3.75;;;;;;;;;;5094531;28;20024;-81
2021/04/28 12:44:22;;;;;;;6.55;4.00;;;;;;;;;;5088572;28;20099;-78
2021/04/28 12:46:49;;;;;;;6.78;3.90;;;;;;;;;;5088650;28;20470;-78
2021/04/28 12:49:15;;;;;;;6.72;3.78;;;;;;;;;;5089533;28;20031;-79
2021/04/28 12:51:51;;;;;;;10.40;3.90;;;;;;;;;;5089064;28;20131;-79
2021/04/28 12:54:31;;;;;;;8.35;6.50;;;;;;;;;;5089932;28;20039;-77
2021/04/28 12:56:58;;;;;;;12.13;10.50;;;;;;;;;;5091460;28;20028;-78
2021/04/28 12:59:24;;;;;;;16.30;11.77;;;;;;;;;;5090814;28;20020;-78
2021/04/28 13:01:57;;;;;;;15.05;12.32;;;;;;;;;;5062102;28;20447;-79
2021/04/28 13:04:23;;;;;;;14.25;12.18;;;;;;;;;;5076705;28;20484;-79
2021/04/28 13:06:50;;;;;;;16.40;12.63;;;;;;;;;;5071963;28;20024;-86
2021/04/28 13:09:16;;;;;;;10.48;8.00;;;;;;;;;;5074752;28;20101;-84
2021/04/28 13:11:46;;;;;;;10.80;5.80;;;;;;;;;;5073415;28;20044;-84
2021/04/28 13:14:18;;;;;;;7.72;5.22;;;;;;;;;;5090549;28;20032;-88
2021/04/28 13:16:45;;;;;;;7.13;4.80;;;;;;;;;;5090697;28;20028;-85
2021/04/28 13:19:28;;;;;;;6.57;4.32;;;;;;;;;;5090943;28;20024;-88
2021/04/28 13:21:59;;;;;;;6.38;4.43;;;;;;;;;;5090533;28;20032;-90
2021/04/28 13:24:27;;;;;;;5.57;4.40;;;;;;;;;;5090175;28;20016;-89
2021/04/28 13:27:16;;;;;;;6.85;4.40;;;;;;;;;;5090634;28;20375;-88
2021/04/28 13:29:57;;;;;;;7.57;4.35;;;;;;;;;;5080449;28;20044;-82
2021/04/28 13:32:38;;;;;;;5.95;4.03;;;;;;;;;;5090210;28;20044;-83
2021/04/28 13:35:10;;;;;;;5.70;4.30;;;;;;;;;;5090612;28;20448;-85
2021/04/28 13:37:36;;;;;;;4.78;3.90;;;;;;;;;;5072346;28;20484;-85
2021/04/28 13:40:15;;;;;;;6.32;4.07;;;;;;;;;;5090574;28;20062;-84
2021/04/28 13:42:41;;;;;;;7.30;4.13;;;;;;;;;;5090293;28;20044;-87
2021/04/28 13:45:07;;;;;;;4.87;3.80;;;;;;;;;;5072434;28;20024;-86
2021/04/28 13:47:33;;;;;;;6.70;4.10;;;;;;;;;;5089835;28;20274;-86
2021/04/28 13:49:59;;;;;;;8.40;4.17;;;;;;;;;;5090250;28;20379;-85
2021/04/28 13:52:25;;;;;;;4.83;3.70;;;;;;;;;;5071442;28;20036;-85
2021/04/28 13:54:51;;;;;;;4.73;3.70;;;;;;;;;;5086794;28;20043;-79
2021/04/28 13:57:17;;;;;;;4.73;3.93;;;;;;;;;;5086220;28;20081;-81
2021/04/28 13:59:43;;;;;;;4.93;3.90;;;;;;;;;;5089638;28;20444;-81
2021/04/28 14:02:09;;;;;;;4.47;3.60;;;;;;;;;;5089655;28;20040;-82
2021/04/28 14:04:34;;;;;;;10.10;4.00;;;;;;;;;;5088696;28;20044;-81
2021/04/28 14:07:03;;;;;;;6.17;3.80;;;;;;;;;;5084949;28;20265;-82
2021/04/28 14:09:29;;;;;;;5.60;3.90;;;;;;;;;;5072202;28;20017;-79
2021/04/28 14:11:55;;;;;;;7.40;3.67;;;;;;;;;;5078885;28;20060;-78
2021/04/28 14:14:21;;;;;;;5.95;4.00;;;;;;;;;;5087353;28;20086;-80
2021/04/28 14:16:48;;;;;;;5.88;3.65;;;;;;;;;;5081351;28;20048;-80
2021/04/28 14:19:14;;;;;;;5.93;3.72;;;;;;;;;;5081010;28;20036;-79
2021/04/28 14:21:40;;;;;;;6.70;3.67;;;;;;;;;;5080079;28;20020;-80
2021/04/28 14:24:06;;;;;;;8.47;4.10;;;;;;;;;;5080278;28;20374;-81
2021/04/28 14:26:32;;;;;;;8.23;4.22;;;;;;;;;;5080087;28;20351;-79
2021/04/28 14:28:58;;;;;;;5.73;3.77;;;;;;;;;;5079772;28;20039;-80
2021/04/28 14:31:24;;;;;;;6.53;3.70;;;;;;;;;;5078775;28;20731;-81
2021/04/28 14:33:50;;;;;;;6.37;3.40;;;;;;;;;;5061747;28;20352;-81
2021/04/28 14:36:16;;;;;;;7.53;3.60;;;;;;;;;;5082778;28;20051;-79
2021/04/28 14:38:42;;;;;;;5.30;3.73;;;;;;;;;;5064964;28;20839;-79
2021/04/28 14:41:08;;;;;;;6.73;3.67;;;;;;;;;;5083678;28;20286;-83
2021/04/28 14:43:34;;;;;;;7.00;3.83;;;;;;;;;;5083552;28;20287;-85